createdAt,value
2023-05-14T00:00:41.550Z,77.40
2023-05-14T00:01:41.576Z,77.33
2023-05-14T00:02:41.687Z,77.30
2023-05-14T00:03:41.686Z,77.22
2023-05-14T00:04:41.723Z,77.36
2023-05-14T00:05:41.646Z,77.30
2023-05-14T00:06:41.640Z,77.11
2023-05-14T00:07:41.657Z,77.20
2023-05-14T00:08:41.728Z,77.23
2023-05-14T00:09:41.706Z,77.40
2023-05-14T00:10:41.727Z,77.35
2023-05-14T00:11:41.741Z,77.45
2023-05-14T00:12:41.754Z,77.43
2023-05-14T00:13:41.786Z,77.37
2023-05-14T00:14:41.776Z,77.38
2023-05-14T00:15:41.813Z,77.30
2023-05-14T00:16:41.771Z,77.37
2023-05-14T00:17:41.830Z,77.33
2023-05-14T00:18:41.833Z,77.24
2023-05-14T00:19:41.785Z,77.15
2023-05-14T00:20:41.801Z,77.02
2023-05-14T00:21:41.855Z,76.80
2023-05-14T00:22:41.914Z,76.81
2023-05-14T00:23:41.957Z,76.61
2023-05-14T00:24:42.021Z,76.60
2023-05-14T00:25:42.026Z,76.47
2023-05-14T00:26:42.074Z,76.38
2023-05-14T00:27:42.107Z,76.25
2023-05-14T00:28:42.160Z,76.22
2023-05-14T00:29:42.224Z,76.15
2023-05-14T00:30:42.211Z,76.25
2023-05-14T00:31:42.278Z,75.82
2023-05-14T00:32:42.362Z,75.78
2023-05-14T00:33:42.344Z,75.60
2023-05-14T00:34:42.424Z,75.61
2023-05-14T00:35:42.467Z,75.57
2023-05-14T00:36:42.519Z,75.66
2023-05-14T00:37:42.576Z,76.17
2023-05-14T00:38:42.681Z,76.38
2023-05-14T00:39:42.703Z,76.47
2023-05-14T00:40:42.685Z,76.56
2023-05-14T00:41:42.722Z,76.33
2023-05-14T00:42:42.764Z,76.00
2023-05-14T00:43:42.797Z,76.07
2023-05-14T00:44:42.858Z,75.97
2023-05-14T00:45:42.884Z,75.75
2023-05-14T00:46:42.968Z,75.53
2023-05-14T00:47:42.975Z,75.46
2023-05-14T00:48:42.935Z,75.34
2023-05-14T00:49:43.004Z,75.03
2023-05-14T00:50:43.029Z,74.91
2023-05-14T00:51:43.079Z,74.96
2023-05-14T00:52:43.175Z,75.02
2023-05-14T00:53:43.239Z,75.06
2023-05-14T00:54:43.310Z,75.58
2023-05-14T00:55:43.407Z,75.78
2023-05-14T00:56:43.448Z,75.98
2023-05-14T00:57:43.516Z,75.84
2023-05-14T00:58:43.599Z,75.79
2023-05-14T00:59:43.683Z,75.59
2023-05-14T01:00:43.716Z,75.63
2023-05-14T01:01:43.808Z,75.67
2023-05-14T01:02:43.980Z,75.69
2023-05-14T01:03:44.112Z,75.68
2023-05-14T01:04:44.034Z,76.05
2023-05-14T01:05:44.105Z,76.44
2023-05-14T01:06:44.169Z,76.32
2023-05-14T01:07:44.241Z,76.44
2023-05-14T01:08:44.314Z,76.37
2023-05-14T01:09:44.362Z,76.61
2023-05-14T01:10:44.396Z,76.63
2023-05-14T01:11:44.422Z,76.68
2023-05-14T01:12:44.457Z,76.79
2023-05-14T01:13:44.492Z,76.68
2023-05-14T01:14:44.546Z,76.93
2023-05-14T01:15:44.588Z,76.95
2023-05-14T01:16:44.678Z,77.02
2023-05-14T01:17:44.716Z,77.10
2023-05-14T01:18:44.759Z,77.13
2023-05-14T01:19:44.785Z,77.12
2023-05-14T01:20:44.817Z,77.12
2023-05-14T01:21:44.839Z,77.02
2023-05-14T01:22:44.867Z,77.07
2023-05-14T01:23:44.893Z,77.20
2023-05-14T01:24:44.996Z,77.26
2023-05-14T01:25:44.973Z,77.21
2023-05-14T01:26:44.983Z,77.37
2023-05-14T01:27:45.012Z,77.38
2023-05-14T01:28:45.042Z,77.41
2023-05-14T01:29:45.057Z,77.41
2023-05-14T01:30:45.079Z,77.44
2023-05-14T01:31:45.105Z,77.61
2023-05-14T01:32:45.199Z,77.64
2023-05-14T01:33:45.264Z,77.73
2023-05-14T01:34:45.304Z,77.79
2023-05-14T01:35:45.379Z,78.08
2023-05-14T01:36:45.429Z,78.52
2023-05-14T01:37:45.499Z,78.96
2023-05-14T01:38:45.589Z,79.09
2023-05-14T01:39:45.609Z,78.98
2023-05-14T01:40:45.657Z,78.98
2023-05-14T01:41:45.684Z,78.89
2023-05-14T01:42:45.745Z,78.64
2023-05-14T01:43:45.769Z,78.40
2023-05-14T01:44:45.806Z,78.21
2023-05-14T01:45:45.989Z,77.88
2023-05-14T01:46:45.929Z,77.71
2023-05-14T01:47:46.009Z,77.53
2023-05-14T01:48:46.044Z,77.30
2023-05-14T01:49:46.125Z,77.22
2023-05-14T01:50:46.160Z,76.79
2023-05-14T01:51:46.202Z,76.53
2023-05-14T01:52:46.266Z,76.48
2023-05-14T01:53:46.304Z,76.37
2023-05-14T01:54:46.352Z,76.11
2023-05-14T01:55:46.409Z,76.10
2023-05-14T01:56:46.460Z,75.97
2023-05-14T01:57:46.497Z,75.88
2023-05-14T01:58:46.550Z,75.84
2023-05-14T01:59:46.568Z,75.77
2023-05-14T02:00:46.629Z,75.82
2023-05-14T02:01:46.680Z,75.88
2023-05-14T02:02:46.686Z,75.87
2023-05-14T02:03:46.724Z,75.54
2023-05-14T02:04:46.728Z,75.41
2023-05-14T02:05:46.804Z,75.27
2023-05-14T02:06:46.839Z,74.97
2023-05-14T02:07:46.847Z,74.82
2023-05-14T02:08:46.885Z,74.97
2023-05-14T02:09:46.917Z,75.09
2023-05-14T02:10:46.958Z,74.97
2023-05-14T02:11:46.999Z,74.85
2023-05-14T02:12:47.031Z,74.72
2023-05-14T02:13:47.064Z,74.72
2023-05-14T02:14:47.094Z,74.78
2023-05-14T02:15:47.163Z,74.70
2023-05-14T02:16:47.165Z,74.64
2023-05-14T02:17:47.218Z,74.57
2023-05-14T02:18:47.295Z,74.66
2023-05-14T02:19:47.255Z,74.55
2023-05-14T02:20:47.263Z,74.35
2023-05-14T02:21:47.313Z,74.27
2023-05-14T02:22:47.335Z,74.24
2023-05-14T02:23:47.338Z,74.13
2023-05-14T02:24:47.371Z,74.21
2023-05-14T02:25:47.416Z,73.74
2023-05-14T02:26:47.432Z,74.02
2023-05-14T02:27:47.491Z,74.07
2023-05-14T02:28:47.519Z,73.94
2023-05-14T02:29:47.570Z,73.85
2023-05-14T02:30:47.589Z,73.73
2023-05-14T02:31:47.675Z,73.63
2023-05-14T02:32:47.770Z,73.78
2023-05-14T02:33:47.682Z,73.93
2023-05-14T02:34:47.700Z,73.68
2023-05-14T02:35:47.730Z,73.78
2023-05-14T02:36:47.767Z,73.74
2023-05-14T02:37:47.869Z,73.60
2023-05-14T02:38:47.820Z,73.49
2023-05-14T02:39:47.833Z,73.57
2023-05-14T02:40:47.869Z,73.46
2023-05-14T02:41:47.910Z,73.40
2023-05-14T02:42:47.944Z,73.27
2023-05-14T02:43:47.988Z,73.37
2023-05-14T02:44:48.024Z,73.45
2023-05-14T02:45:48.052Z,73.58
2023-05-14T02:46:48.125Z,73.58
2023-05-14T02:47:48.157Z,73.44
2023-05-14T02:48:48.129Z,73.42
2023-05-14T02:49:48.159Z,73.54
2023-05-14T02:50:48.191Z,73.61
2023-05-14T02:51:48.215Z,73.67
2023-05-14T02:52:48.249Z,73.59
2023-05-14T02:53:48.289Z,73.78
2023-05-14T02:54:48.321Z,73.94
2023-05-14T02:55:48.333Z,74.03
2023-05-14T02:56:48.391Z,74.30
2023-05-14T02:57:48.379Z,74.31
2023-05-14T02:58:48.396Z,74.64
2023-05-14T02:59:48.430Z,74.59
2023-05-14T03:00:48.468Z,74.62
2023-05-14T03:01:48.500Z,74.43
2023-05-14T03:02:48.607Z,74.51
2023-05-14T03:03:48.527Z,74.54
2023-05-14T03:04:48.554Z,74.39
2023-05-14T03:05:48.589Z,74.12
2023-05-14T03:06:48.606Z,74.15
2023-05-14T03:07:48.616Z,74.22
2023-05-14T03:08:48.632Z,74.16
2023-05-14T03:09:48.653Z,74.24
2023-05-14T03:10:48.642Z,74.59
2023-05-14T03:11:48.648Z,74.57
2023-05-14T03:12:48.652Z,74.33
2023-05-14T03:13:48.663Z,74.17
2023-05-14T03:14:48.673Z,74.21
2023-05-14T03:15:48.777Z,74.08
2023-05-14T03:16:48.749Z,74.19
2023-05-14T03:17:48.779Z,74.34
2023-05-14T03:18:48.780Z,74.18
2023-05-14T03:19:48.785Z,74.23
2023-05-14T03:20:48.832Z,74.32
2023-05-14T03:21:48.831Z,74.25
2023-05-14T03:22:48.880Z,74.39
2023-05-14T03:23:48.919Z,74.59
2023-05-14T03:24:48.960Z,74.63
2023-05-14T03:25:49.074Z,74.66
2023-05-14T03:26:49.076Z,74.53
2023-05-14T03:27:49.124Z,74.37
2023-05-14T03:28:49.195Z,74.31
2023-05-14T03:29:49.241Z,74.27
2023-05-14T03:30:49.329Z,74.15
2023-05-14T03:31:49.646Z,73.95
2023-05-14T03:32:49.538Z,74.01
2023-05-14T03:33:49.485Z,74.23
2023-05-14T03:34:49.538Z,74.40
2023-05-14T03:35:49.599Z,74.40
2023-05-14T03:36:49.648Z,74.59
2023-05-14T03:37:49.704Z,74.61
2023-05-14T03:38:49.742Z,74.66
2023-05-14T03:39:49.798Z,74.65
2023-05-14T03:40:49.856Z,74.77
2023-05-14T03:41:50.058Z,74.72
2023-05-14T03:42:50.008Z,74.65
2023-05-14T03:43:50.072Z,74.85
2023-05-14T03:44:50.095Z,74.82
2023-05-14T03:45:50.149Z,75.04
2023-05-14T03:46:50.205Z,75.18
2023-05-14T03:47:50.432Z,75.31
2023-05-14T03:48:50.260Z,75.25
2023-05-14T03:49:50.266Z,75.22
2023-05-14T03:50:50.300Z,75.32
2023-05-14T03:51:50.353Z,75.32
2023-05-14T03:52:50.398Z,75.50
2023-05-14T03:53:50.463Z,75.55
2023-05-14T03:54:50.523Z,75.66
2023-05-14T03:55:50.596Z,75.88
2023-05-14T03:56:50.666Z,76.06
2023-05-14T03:57:50.783Z,76.34
2023-05-14T03:58:50.838Z,76.55
2023-05-14T03:59:50.921Z,76.59
2023-05-14T04:00:50.976Z,76.69
2023-05-14T04:01:51.047Z,77.04
2023-05-14T04:02:51.210Z,77.07
2023-05-14T04:03:51.481Z,76.91
2023-05-14T04:04:51.488Z,76.98
2023-05-14T04:05:51.435Z,77.09
2023-05-14T04:06:51.520Z,77.14
2023-05-14T04:07:51.580Z,77.48
2023-05-14T04:08:51.646Z,77.46
2023-05-14T04:09:51.722Z,77.33
2023-05-14T04:10:51.817Z,77.19
2023-05-14T04:11:51.867Z,77.03
2023-05-14T04:12:51.937Z,77.12
2023-05-14T04:13:52.026Z,77.25
2023-05-14T04:14:52.059Z,77.32
2023-05-14T04:15:52.165Z,77.12
2023-05-14T04:16:52.818Z,77.40
2023-05-14T04:17:52.291Z,77.22
2023-05-14T04:18:52.396Z,77.17
2023-05-14T04:19:52.414Z,77.15
2023-05-14T04:20:52.500Z,76.97
2023-05-14T04:21:52.583Z,76.90
2023-05-14T04:22:52.651Z,76.77
2023-05-14T04:23:52.723Z,76.79
2023-05-14T04:24:52.768Z,76.48
2023-05-14T04:25:52.848Z,76.31
2023-05-14T04:26:52.948Z,76.45
2023-05-14T04:27:53.047Z,76.77
2023-05-14T04:28:53.110Z,77.04
2023-05-14T04:29:53.184Z,77.17
2023-05-14T04:30:53.204Z,77.14
2023-05-14T04:31:53.312Z,77.30
2023-05-14T04:32:53.387Z,77.13
2023-05-14T04:33:53.438Z,76.81
2023-05-14T04:34:53.514Z,76.76
2023-05-14T04:35:53.588Z,76.76
2023-05-14T04:36:53.643Z,76.66
2023-05-14T04:37:53.684Z,76.64
2023-05-14T04:38:53.739Z,76.49
2023-05-14T04:39:53.780Z,76.23
2023-05-14T04:40:53.844Z,76.34
2023-05-14T04:41:53.917Z,76.42
2023-05-14T04:42:53.915Z,76.40
2023-05-14T04:43:53.995Z,76.64
2023-05-14T04:44:54.050Z,76.76
2023-05-14T04:45:54.316Z,76.75
2023-05-14T04:46:54.259Z,76.63
2023-05-14T04:47:54.330Z,76.56
2023-05-14T04:48:54.378Z,76.47
2023-05-14T04:49:54.496Z,76.57
2023-05-14T04:50:54.573Z,76.50
2023-05-14T04:51:54.596Z,76.86
2023-05-14T04:52:54.628Z,76.66
2023-05-14T04:53:54.671Z,76.53
2023-05-14T04:54:54.741Z,76.60
2023-05-14T04:55:54.805Z,76.54
2023-05-14T04:56:54.875Z,76.57
2023-05-14T04:57:54.954Z,76.27
2023-05-14T04:58:55.037Z,76.37
2023-05-14T04:59:55.132Z,76.52
2023-05-14T05:00:55.274Z,76.61
2023-05-14T05:01:55.317Z,76.54
2023-05-14T05:02:55.400Z,76.42
2023-05-14T05:03:55.515Z,76.55
2023-05-14T05:04:55.533Z,76.51
2023-05-14T05:05:55.597Z,76.48
2023-05-14T05:06:55.676Z,76.51
2023-05-14T05:07:55.753Z,76.42
2023-05-14T05:08:55.800Z,75.99
2023-05-14T05:09:55.885Z,76.09
2023-05-14T05:10:55.920Z,76.02
2023-05-14T05:11:55.948Z,76.15
2023-05-14T05:12:55.978Z,76.10
2023-05-14T05:13:56.012Z,75.87
2023-05-14T05:14:56.063Z,75.85
2023-05-14T05:15:56.466Z,75.80
2023-05-14T05:16:56.169Z,75.64
2023-05-14T05:17:56.331Z,75.62
2023-05-14T05:18:56.315Z,75.54
2023-05-14T05:19:56.351Z,75.65
2023-05-14T05:20:56.416Z,75.61
2023-05-14T05:21:56.446Z,75.60
2023-05-14T05:22:56.463Z,75.42
2023-05-14T05:23:56.489Z,75.27
2023-05-14T05:24:56.548Z,75.40
2023-05-14T05:25:56.672Z,75.52
2023-05-14T05:26:56.671Z,75.54
2023-05-14T05:27:56.728Z,75.16
2023-05-14T05:28:56.759Z,74.91
2023-05-14T05:29:56.819Z,74.85
2023-05-14T05:30:56.914Z,74.21
2023-05-14T05:31:56.991Z,73.82
2023-05-14T05:32:57.055Z,73.81
2023-05-14T05:33:57.137Z,73.97
2023-05-14T05:34:57.194Z,74.05
2023-05-14T05:35:57.219Z,73.98
2023-05-14T05:36:57.263Z,74.06
2023-05-14T05:37:59.216Z,74.14
2023-05-14T05:38:57.362Z,74.41
2023-05-14T05:39:57.370Z,74.42
2023-05-14T05:40:57.452Z,74.28
2023-05-14T05:41:57.422Z,75.23
2023-05-14T05:42:57.462Z,75.51
2023-05-14T05:43:57.498Z,75.42
2023-05-14T05:44:57.550Z,75.94
2023-05-14T05:45:57.636Z,75.91
2023-05-14T05:46:57.804Z,75.82
2023-05-14T05:47:57.735Z,75.99
2023-05-14T05:48:57.732Z,76.30
2023-05-14T05:49:57.761Z,76.28
2023-05-14T05:50:57.842Z,76.30
2023-05-14T05:51:57.789Z,75.86
2023-05-14T05:52:57.796Z,75.49
2023-05-14T05:53:57.836Z,75.42
2023-05-14T05:54:57.865Z,75.63
2023-05-14T05:55:57.920Z,75.24
2023-05-14T05:56:58.039Z,75.17
2023-05-14T05:57:58.088Z,75.20
2023-05-14T05:58:58.162Z,74.97
2023-05-14T05:59:58.210Z,74.67
2023-05-14T06:00:58.232Z,75.02
2023-05-14T06:01:58.306Z,75.02
2023-05-14T06:02:58.291Z,75.00
2023-05-14T06:03:58.302Z,74.51
2023-05-14T06:04:58.403Z,74.02
2023-05-14T06:05:58.442Z,73.68
2023-05-14T06:06:58.469Z,73.54
2023-05-14T06:07:58.537Z,73.10
2023-05-14T06:08:58.614Z,72.74
2023-05-14T06:09:58.706Z,72.71
2023-05-14T06:10:58.777Z,72.53
2023-05-14T06:11:58.835Z,72.30
2023-05-14T06:12:58.899Z,72.30
2023-05-14T06:13:58.950Z,71.85
2023-05-14T06:14:58.997Z,72.10
2023-05-14T06:15:59.020Z,72.08
2023-05-14T06:16:59.141Z,72.30
2023-05-14T06:17:59.237Z,72.35
2023-05-14T06:18:59.275Z,71.89
2023-05-14T06:19:59.238Z,70.89
2023-05-14T06:20:59.328Z,71.54
2023-05-14T06:21:59.382Z,71.72
2023-05-14T06:22:59.467Z,71.96
2023-05-14T06:23:59.556Z,71.99
2023-05-14T06:24:59.658Z,72.12
2023-05-14T06:25:59.718Z,72.83
2023-05-14T06:26:59.786Z,73.02
2023-05-14T06:27:59.880Z,72.20
2023-05-14T06:28:59.949Z,71.80
2023-05-14T06:30:00.010Z,71.44
2023-05-14T06:31:00.082Z,71.28
2023-05-14T06:32:00.359Z,70.76
2023-05-14T06:33:00.244Z,70.67
2023-05-14T06:34:00.196Z,70.24
2023-05-14T06:35:00.255Z,69.98
2023-05-14T06:36:00.327Z,69.46
2023-05-14T06:37:00.345Z,69.13
2023-05-14T06:38:00.418Z,68.74
2023-05-14T06:39:00.431Z,68.53
2023-05-14T06:40:00.491Z,68.14
2023-05-14T06:41:00.523Z,68.78
2023-05-14T06:42:00.563Z,68.39
2023-05-14T06:43:00.620Z,68.95
2023-05-14T06:44:00.649Z,69.05
2023-05-14T06:46:30.129Z,69.53
2023-05-14T06:47:20.544Z,68.76
2023-05-14T06:48:20.628Z,68.60
2023-05-14T06:49:20.567Z,68.52
2023-05-14T06:50:20.583Z,68.85
2023-05-14T06:51:20.602Z,68.96
2023-05-14T06:52:20.564Z,68.68
2023-05-14T06:53:20.581Z,67.81
2023-05-14T06:54:20.602Z,68.13
2023-05-14T06:55:20.540Z,68.24
2023-05-14T06:56:20.528Z,68.37
2023-05-14T06:57:20.536Z,68.08
2023-05-14T06:58:20.504Z,68.42
2023-05-14T06:59:20.483Z,67.76
2023-05-14T07:00:20.484Z,67.55
2023-05-14T07:01:20.436Z,66.63
2023-05-14T07:02:21.158Z,66.55
2023-05-14T07:03:20.365Z,66.43
2023-05-14T07:04:20.372Z,66.23
2023-05-14T07:05:20.299Z,65.89
2023-05-14T07:06:20.294Z,65.01
2023-05-14T07:07:20.230Z,63.88
2023-05-14T07:08:20.204Z,64.51
2023-05-14T07:09:20.196Z,64.84
2023-05-14T07:10:20.135Z,65.19
2023-05-14T07:11:20.120Z,65.45
2023-05-14T07:12:20.188Z,65.85
2023-05-14T07:13:20.211Z,66.45
2023-05-14T07:14:20.235Z,66.54
2023-05-14T07:15:20.236Z,65.79
2023-05-14T07:16:20.228Z,65.53
2023-05-14T07:17:20.349Z,65.82
2023-05-14T07:18:20.254Z,65.85
2023-05-14T07:19:20.210Z,65.47
2023-05-14T07:20:20.194Z,65.22
2023-05-14T07:21:20.156Z,65.41
2023-05-14T07:22:20.138Z,65.11
2023-05-14T07:23:20.227Z,64.25
2023-05-14T07:24:20.103Z,63.82
2023-05-14T07:25:20.110Z,63.27
2023-05-14T07:26:20.104Z,62.85
2023-05-14T07:27:20.085Z,63.16
2023-05-14T07:28:20.076Z,63.57
2023-05-14T07:29:20.082Z,62.37
2023-05-14T07:30:20.094Z,62.44
2023-05-14T07:31:20.262Z,62.94
2023-05-14T07:32:20.102Z,62.74
2023-05-14T07:33:20.081Z,62.50
2023-05-14T07:34:20.067Z,62.61
2023-05-14T07:35:20.101Z,63.37
2023-05-14T07:36:20.125Z,63.06
2023-05-14T07:37:21.025Z,62.56
2023-05-14T07:38:20.116Z,62.72
2023-05-14T07:39:20.066Z,62.99
2023-05-14T07:40:20.035Z,63.12
2023-05-14T07:41:20.037Z,62.82
2023-05-14T07:42:34.614Z,62.92
2023-05-14T07:43:19.941Z,62.09
2023-05-14T07:44:19.893Z,62.20
2023-05-14T07:45:19.849Z,61.84
2023-05-14T07:46:19.812Z,61.66
2023-05-14T07:47:19.806Z,61.45
2023-05-14T07:48:19.775Z,61.14
2023-05-14T07:49:19.674Z,61.17
2023-05-14T07:50:19.637Z,61.52
2023-05-14T07:51:19.602Z,61.84
2023-05-14T07:52:19.567Z,62.13
2023-05-14T07:53:19.526Z,62.08
2023-05-14T07:54:19.472Z,62.19
2023-05-14T07:55:19.436Z,62.22
2023-05-14T07:56:19.405Z,61.96
2023-05-14T07:57:19.396Z,61.55
2023-05-14T07:58:19.321Z,62.10
2023-05-14T07:59:19.308Z,62.41
2023-05-14T08:00:19.268Z,61.97
2023-05-14T08:01:19.238Z,62.11
2023-05-14T08:02:19.230Z,62.64
2023-05-14T08:03:19.280Z,62.97
2023-05-14T08:04:19.184Z,62.63
2023-05-14T08:05:19.132Z,63.45
2023-05-14T08:06:19.103Z,63.93
2023-05-14T08:07:19.079Z,64.13
2023-05-14T08:08:19.070Z,64.59
2023-05-14T08:09:19.052Z,65.08
2023-05-14T08:10:19.067Z,63.66
2023-05-14T08:11:19.055Z,63.77
2023-05-14T08:12:19.003Z,64.49
2023-05-14T08:13:19.008Z,64.20
2023-05-14T08:14:18.946Z,64.10
2023-05-14T08:15:18.929Z,64.31
2023-05-14T08:16:18.918Z,64.06
2023-05-14T08:17:18.917Z,64.17
2023-05-14T08:18:18.844Z,63.30
2023-05-14T08:19:18.999Z,63.31
2023-05-14T08:20:18.890Z,64.60
2023-05-14T08:21:18.864Z,63.62
2023-05-14T08:22:18.882Z,63.83
2023-05-14T08:23:18.928Z,64.04
2023-05-14T08:24:18.976Z,64.70
2023-05-14T08:25:19.011Z,64.75
2023-05-14T08:26:19.051Z,65.50
2023-05-14T08:27:19.110Z,65.45
2023-05-14T08:28:19.110Z,64.82
2023-05-14T08:29:19.184Z,65.11
2023-05-14T08:30:19.193Z,65.52
2023-05-14T08:31:19.301Z,66.14
2023-05-14T08:32:23.383Z,66.14
2023-05-14T08:33:19.229Z,65.91
2023-05-14T08:34:19.229Z,65.80
2023-05-14T08:35:19.208Z,64.90
2023-05-14T08:36:19.197Z,65.78
2023-05-14T08:37:19.204Z,65.70
2023-05-14T08:38:19.199Z,66.66
2023-05-14T08:39:19.219Z,67.14
2023-05-14T08:40:19.229Z,67.04
2023-05-14T08:41:19.235Z,67.06
2023-05-14T08:42:19.246Z,67.25
2023-05-14T08:43:19.250Z,67.64
2023-05-14T08:44:19.260Z,67.58
2023-05-14T08:45:19.276Z,67.24
2023-05-14T08:46:19.244Z,67.67
2023-05-14T08:47:19.256Z,67.41
2023-05-14T08:48:19.322Z,66.75
2023-05-14T08:49:19.247Z,66.94
2023-05-14T08:50:21.000Z,66.48
2023-05-14T08:51:19.218Z,66.22
2023-05-14T08:52:19.175Z,65.52
2023-05-14T08:53:19.131Z,65.44
2023-05-14T08:54:19.094Z,64.93
2023-05-14T08:55:19.069Z,64.86
2023-05-14T08:56:19.044Z,64.19
2023-05-14T08:57:18.980Z,64.31
2023-05-14T08:58:18.950Z,64.98
2023-05-14T08:59:19.642Z,63.45
2023-05-14T09:00:18.896Z,64.20
2023-05-14T09:01:18.898Z,63.98
2023-05-14T09:02:18.791Z,64.02
2023-05-14T09:03:18.798Z,63.33
2023-05-14T09:04:18.855Z,62.47
2023-05-14T09:05:18.651Z,62.03
2023-05-14T09:06:18.618Z,61.33
2023-05-14T09:07:18.569Z,60.64
2023-05-14T09:08:18.529Z,60.24
2023-05-14T09:09:18.513Z,60.23
2023-05-14T09:10:18.461Z,60.11
2023-05-14T09:11:18.407Z,61.23
2023-05-14T09:12:18.367Z,60.42
2023-05-14T09:13:18.300Z,59.62
2023-05-14T09:14:18.260Z,58.84
2023-05-14T09:15:18.199Z,59.02
2023-05-14T09:16:18.148Z,58.85
2023-05-14T09:17:18.117Z,58.75
2023-05-14T09:18:18.027Z,58.99
2023-05-14T09:19:18.051Z,58.11
2023-05-14T09:20:17.948Z,57.42
2023-05-14T09:21:17.916Z,56.46
2023-05-14T09:22:17.905Z,56.65
2023-05-14T09:23:17.875Z,55.95
2023-05-14T09:24:17.860Z,56.57
2023-05-14T09:25:17.881Z,56.60
2023-05-14T09:26:17.857Z,56.73
2023-05-14T09:27:17.859Z,57.60
2023-05-14T09:28:17.735Z,58.17
2023-05-14T09:29:17.714Z,57.68
2023-05-14T09:30:17.661Z,56.18
2023-05-14T09:31:17.693Z,56.88
2023-05-14T09:32:17.647Z,57.35
2023-05-14T09:33:17.662Z,57.46
2023-05-14T09:34:17.663Z,56.96
2023-05-14T09:35:17.894Z,57.06
2023-05-14T09:36:17.537Z,56.77
2023-05-14T09:37:17.491Z,54.59
2023-05-14T09:38:17.465Z,56.09
2023-05-14T09:39:17.441Z,56.12
2023-05-14T09:40:17.429Z,55.94
2023-05-14T09:41:17.414Z,56.16
2023-05-14T09:42:17.353Z,54.81
2023-05-14T09:43:17.328Z,54.33
2023-05-14T09:44:17.276Z,53.86
2023-05-14T09:45:17.240Z,54.46
2023-05-14T09:46:17.228Z,55.65
2023-05-14T09:47:17.301Z,55.37
2023-05-14T09:48:17.222Z,56.39
2023-05-14T09:49:17.178Z,55.66
2023-05-14T09:50:17.109Z,55.78
2023-05-14T09:51:17.098Z,55.59
2023-05-14T09:52:17.073Z,55.96
2023-05-14T09:53:17.021Z,54.50
2023-05-14T09:54:16.998Z,54.79
2023-05-14T09:55:16.988Z,54.95
2023-05-14T09:56:16.943Z,55.08
2023-05-14T09:57:16.943Z,55.31
2023-05-14T09:58:16.913Z,56.16
2023-05-14T09:59:16.922Z,56.85
2023-05-14T10:00:16.883Z,56.58
2023-05-14T10:01:16.877Z,56.02
2023-05-14T10:02:16.805Z,55.85
2023-05-14T10:03:19.750Z,55.63
2023-05-14T10:04:16.789Z,56.55
2023-05-14T10:05:16.703Z,56.53
2023-05-14T10:06:16.639Z,56.88
2023-05-14T10:07:16.578Z,57.18
2023-05-14T10:08:16.527Z,57.79
2023-05-14T10:09:16.462Z,58.16
2023-05-14T10:10:16.432Z,57.44
2023-05-14T10:11:16.363Z,57.10
2023-05-14T10:12:16.327Z,57.84
2023-05-14T10:13:16.308Z,58.18
2023-05-14T10:14:15.274Z,59.93
2023-05-14T10:15:16.255Z,60.26
2023-05-14T10:16:16.227Z,60.21
2023-05-14T10:17:16.248Z,60.21
2023-05-14T10:18:16.276Z,60.24
2023-05-14T10:19:16.247Z,60.87
2023-05-14T10:20:16.179Z,59.83
2023-05-14T10:21:16.207Z,60.16
2023-05-14T10:22:16.171Z,60.99
2023-05-14T10:23:16.155Z,60.35
2023-05-14T10:24:16.125Z,60.17
2023-05-14T10:25:16.104Z,59.89
2023-05-14T10:26:16.094Z,60.03
2023-05-14T10:27:16.131Z,60.13
2023-05-14T10:28:16.053Z,59.52
2023-05-14T10:29:16.064Z,59.45
2023-05-14T10:30:16.071Z,59.51
2023-05-14T10:31:16.188Z,59.34
2023-05-14T10:32:16.128Z,58.09
2023-05-14T10:33:16.198Z,58.30
2023-05-14T10:34:16.121Z,58.76
2023-05-14T10:35:16.147Z,58.52
2023-05-14T10:36:16.213Z,58.22
2023-05-14T10:37:16.213Z,57.98
2023-05-14T10:38:16.179Z,56.62
2023-05-14T10:39:16.192Z,56.88
2023-05-14T10:40:16.273Z,57.14
2023-05-14T10:41:16.166Z,56.76
2023-05-14T10:42:16.149Z,58.14
2023-05-14T10:43:16.109Z,58.10
2023-05-14T10:44:16.100Z,57.62
2023-05-14T10:45:16.104Z,58.12
2023-05-14T10:46:16.146Z,55.40
2023-05-14T10:47:16.124Z,56.18
2023-05-14T10:48:16.205Z,56.26
2023-05-14T10:49:19.327Z,57.70
2023-05-14T10:50:16.098Z,57.49
2023-05-14T10:51:16.089Z,56.95
2023-05-14T10:52:15.979Z,56.28
2023-05-14T10:53:15.968Z,55.68
2023-05-14T10:54:15.871Z,55.58
2023-05-14T10:55:15.831Z,55.66
2023-05-14T10:56:15.790Z,55.83
2023-05-14T10:57:15.732Z,56.02
2023-05-14T10:58:15.705Z,56.16
2023-05-14T10:59:15.642Z,55.85
2023-05-14T11:00:15.636Z,55.69
2023-05-14T11:01:15.577Z,54.92
2023-05-14T11:02:15.574Z,54.69
2023-05-14T11:03:15.634Z,54.31
2023-05-14T11:04:15.503Z,55.02
2023-05-14T11:05:15.666Z,55.03
2023-05-14T11:06:15.431Z,55.76
2023-05-14T11:07:15.404Z,55.83
2023-05-14T11:08:15.356Z,54.85
2023-05-14T11:09:15.361Z,55.64
2023-05-14T11:10:15.367Z,55.90
2023-05-14T11:11:15.265Z,55.61
2023-05-14T11:12:15.253Z,56.13
2023-05-14T11:13:15.181Z,56.10
2023-05-14T11:14:15.135Z,54.16
2023-05-14T11:15:15.099Z,54.15
2023-05-14T11:16:22.443Z,53.55
2023-05-14T11:17:15.066Z,53.12
2023-05-14T11:18:14.939Z,52.93
2023-05-14T11:19:14.935Z,53.31
2023-05-14T11:20:14.848Z,52.82
2023-05-14T11:21:14.789Z,53.36
2023-05-14T11:22:14.741Z,54.14
2023-05-14T11:23:14.690Z,54.13
2023-05-14T11:24:14.607Z,54.04
2023-05-14T11:25:15.124Z,53.80
2023-05-14T11:26:14.501Z,54.09
2023-05-14T11:27:14.428Z,53.97
2023-05-14T11:28:14.391Z,55.07
2023-05-14T11:29:14.338Z,55.49
2023-05-14T11:30:14.327Z,55.88
2023-05-14T11:31:14.322Z,54.59
2023-05-14T11:32:14.235Z,54.29
2023-05-14T11:33:14.245Z,55.43
2023-05-14T11:34:14.133Z,55.56
2023-05-14T11:35:14.089Z,55.65
2023-05-14T11:36:14.008Z,56.60
2023-05-14T11:37:13.946Z,56.05
2023-05-14T11:38:13.922Z,56.01
2023-05-14T11:39:13.838Z,55.50
2023-05-14T11:40:13.790Z,55.77
2023-05-14T11:41:13.846Z,55.62
2023-05-14T11:42:13.693Z,55.68
2023-05-14T11:43:13.646Z,56.02
2023-05-14T11:44:13.589Z,55.34
2023-05-14T11:45:13.547Z,55.30
2023-05-14T11:46:13.497Z,55.47
2023-05-14T11:47:13.429Z,55.72
2023-05-14T11:48:13.490Z,56.13
2023-05-14T11:49:13.328Z,55.81
2023-05-14T11:50:13.311Z,55.37
2023-05-14T11:51:13.262Z,55.34
2023-05-14T11:52:13.291Z,56.60
2023-05-14T11:53:13.256Z,57.04
2023-05-14T11:54:13.281Z,56.59
2023-05-14T11:55:13.300Z,56.77
2023-05-14T11:56:13.299Z,58.32
2023-05-14T11:57:13.365Z,58.00
2023-05-14T11:58:13.339Z,57.67
2023-05-14T11:59:13.322Z,56.56
2023-05-14T12:00:13.342Z,57.08
2023-05-14T12:01:13.314Z,57.79
2023-05-14T12:02:13.364Z,58.43
2023-05-14T12:03:13.375Z,58.23
2023-05-14T12:04:13.295Z,57.51
2023-05-14T12:05:13.289Z,57.77
2023-05-14T12:06:13.160Z,56.92
2023-05-14T12:07:13.124Z,56.94
2023-05-14T12:08:13.043Z,57.71
2023-05-14T12:09:12.967Z,58.98
2023-05-14T12:10:12.908Z,58.61
2023-05-14T12:11:12.858Z,57.94
2023-05-14T12:12:12.864Z,57.98
2023-05-14T12:13:12.721Z,57.90
2023-05-14T12:14:12.662Z,57.11
2023-05-14T12:15:12.670Z,57.02
2023-05-14T12:16:12.731Z,57.16
2023-05-14T12:17:12.662Z,57.09
2023-05-14T12:18:23.482Z,56.43
2023-05-14T12:19:12.587Z,56.88
2023-05-14T12:20:12.634Z,57.13
2023-05-14T12:21:12.413Z,57.58
2023-05-14T12:22:12.333Z,58.00
2023-05-14T12:23:12.264Z,57.50
2023-05-14T12:24:12.183Z,57.50
2023-05-14T12:25:12.095Z,59.19
2023-05-14T12:26:12.025Z,59.09
2023-05-14T12:27:11.948Z,59.29
2023-05-14T12:28:11.883Z,59.85
2023-05-14T12:29:11.831Z,60.13
2023-05-14T12:31:10.739Z,59.54
2023-05-14T12:32:11.648Z,60.56
2023-05-14T12:33:11.646Z,61.82
2023-05-14T12:34:11.591Z,60.66
2023-05-14T12:35:11.549Z,61.75
2023-05-14T12:36:21.347Z,63.43
2023-05-14T12:37:11.460Z,64.22
2023-05-14T12:38:11.435Z,64.05
2023-05-14T12:39:11.391Z,64.39
2023-05-14T12:40:11.379Z,64.32
2023-05-14T12:41:11.342Z,64.79
2023-05-14T12:42:11.313Z,64.86
2023-05-14T12:43:11.272Z,64.79
2023-05-14T12:44:11.251Z,64.41
2023-05-14T12:45:11.245Z,64.46
2023-05-14T12:46:11.169Z,64.30
2023-05-14T12:47:11.206Z,64.01
2023-05-14T12:48:11.152Z,64.76
2023-05-14T12:49:11.080Z,64.33
2023-05-14T12:50:11.066Z,64.45
2023-05-14T12:51:11.060Z,64.89
2023-05-14T12:53:10.015Z,65.50
2023-05-14T12:54:10.983Z,65.65
2023-05-14T12:55:10.962Z,66.85
2023-05-14T12:56:10.954Z,66.05